sensor_id;sensor_type;location;lat;lon;timestamp;temperature;humidity
14252;DHT22;7210;51.502;10.722;2022-11-18T00:01:19;6.20;30.40
14252;DHT22;7210;51.502;10.722;2022-11-18T00:03:48;6.20;29.40
14252;DHT22;7210;51.502;10.722;2022-11-18T00:06:22;6.20;29.10
14252;DHT22;7210;51.502;10.722;2022-11-18T00:08:52;6.20;26.20
14252;DHT22;7210;51.502;10.722;2022-11-18T00:11:26;6.20;23.40
14252;DHT22;7210;51.502;10.722;2022-11-18T00:14:13;6.20;24.20
14252;DHT22;7210;51.502;10.722;2022-11-18T00:16:50;6.20;22.10
14252;DHT22;7210;51.502;10.722;2022-11-18T00:19:20;6.20;23.00
14252;DHT22;7210;51.502;10.722;2022-11-18T00:21:49;6.20;22.40
14252;DHT22;7210;51.502;10.722;2022-11-18T00:24:18;6.20;24.70
14252;DHT22;7210;51.502;10.722;2022-11-18T00:26:46;6.20;24.30
14252;DHT22;7210;51.502;10.722;2022-11-18T00:29:14;6.10;25.60
14252;DHT22;7210;51.502;10.722;2022-11-18T00:31:41;6.10;25.30
14252;DHT22;7210;51.502;10.722;2022-11-18T00:34:10;6.20;28.20
14252;DHT22;7210;51.502;10.722;2022-11-18T00:36:38;6.10;27.30
14252;DHT22;7210;51.502;10.722;2022-11-18T00:39:09;6.20;30.20
14252;DHT22;7210;51.502;10.722;2022-11-18T00:41:39;6.10;31.30
14252;DHT22;7210;51.502;10.722;2022-11-18T00:44:24;6.10;29.70
14252;DHT22;7210;51.502;10.722;2022-11-18T00:46:51;6.10;34.30
14252;DHT22;7210;51.502;10.722;2022-11-18T00:49:19;6.10;33.20
14252;DHT22;7210;51.502;10.722;2022-11-18T00:51:46;6.10;37.50
14252;DHT22;7210;51.502;10.722;2022-11-18T00:54:20;6.10;35.70
14252;DHT22;7210;51.502;10.722;2022-11-18T00:56:49;6.10;40.30
14252;DHT22;7210;51.502;10.722;2022-11-18T00:59:20;6.10;44.70
14252;DHT22;7210;51.502;10.722;2022-11-18T01:01:47;6.00;45.40
14252;DHT22;7210;51.502;10.722;2022-11-18T01:04:20;6.00;45.20
14252;DHT22;7210;51.502;10.722;2022-11-18T01:06:47;6.00;48.40
14252;DHT22;7210;51.502;10.722;2022-11-18T01:09:14;6.00;51.40
14252;DHT22;7210;51.502;10.722;2022-11-18T01:11:41;6.00;52.10
14252;DHT22;7210;51.502;10.722;2022-11-18T01:14:28;5.90;50.00
14252;DHT22;7210;51.502;10.722;2022-11-18T01:16:56;6.00;49.40
14252;DHT22;7210;51.502;10.722;2022-11-18T01:19:24;5.90;48.40
14252;DHT22;7210;51.502;10.722;2022-11-18T01:21:56;5.90;46.40
14252;DHT22;7210;51.502;10.722;2022-11-18T01:24:32;5.90;51.10
14252;DHT22;7210;51.502;10.722;2022-11-18T01:27:00;5.90;50.90
14252;DHT22;7210;51.502;10.722;2022-11-18T01:29:29;6.00;52.60
14252;DHT22;7210;51.502;10.722;2022-11-18T01:31:56;5.90;54.70
14252;DHT22;7210;51.502;10.722;2022-11-18T01:34:26;5.90;54.50
14252;DHT22;7210;51.502;10.722;2022-11-18T01:36:56;5.90;56.40
14252;DHT22;7210;51.502;10.722;2022-11-18T01:39:23;5.90;58.50
14252;DHT22;7210;51.502;10.722;2022-11-18T01:41:56;5.90;52.20
14252;DHT22;7210;51.502;10.722;2022-11-18T01:47:50;5.90;56.90
14252;DHT22;7210;51.502;10.722;2022-11-18T01:50:26;5.90;53.20
14252;DHT22;7210;51.502;10.722;2022-11-18T01:52:59;5.90;50.90
14252;DHT22;7210;51.502;10.722;2022-11-18T01:55:32;5.90;53.30
14252;DHT22;7210;51.502;10.722;2022-11-18T01:58:06;5.90;48.00
14252;DHT22;7210;51.502;10.722;2022-11-18T02:00:38;5.90;47.70
14252;DHT22;7210;51.502;10.722;2022-11-18T02:03:06;6.00;45.50
14252;DHT22;7210;51.502;10.722;2022-11-18T02:05:34;6.00;47.10
14252;DHT22;7210;51.502;10.722;2022-11-18T02:08:05;5.90;52.70
14252;DHT22;7210;51.502;10.722;2022-11-18T02:10:33;5.90;57.90
14252;DHT22;7210;51.502;10.722;2022-11-18T02:13:01;5.90;57.20
14252;DHT22;7210;51.502;10.722;2022-11-18T02:15:41;5.90;61.00
14252;DHT22;7210;51.502;10.722;2022-11-18T02:18:23;5.90;58.50
14252;DHT22;7210;51.502;10.722;2022-11-18T02:21:11;5.90;59.30
14252;DHT22;7210;51.502;10.722;2022-11-18T02:24:19;5.90;62.90
14252;DHT22;7210;51.502;10.722;2022-11-18T02:27:27;5.90;66.90
14252;DHT22;7210;51.502;10.722;2022-11-18T02:30:11;5.90;67.80
14252;DHT22;7210;51.502;10.722;2022-11-18T02:32:45;5.90;75.70
14252;DHT22;7210;51.502;10.722;2022-11-18T02:35:26;5.90;76.70
14252;DHT22;7210;51.502;10.722;2022-11-18T02:37:58;5.90;73.90
14252;DHT22;7210;51.502;10.722;2022-11-18T02:40:34;5.90;71.30
14252;DHT22;7210;51.502;10.722;2022-11-18T02:43:07;5.90;66.20
14252;DHT22;7210;51.502;10.722;2022-11-18T02:45:48;5.90;65.90
14252;DHT22;7210;51.502;10.722;2022-11-18T02:48:21;5.90;70.50
14252;DHT22;7210;51.502;10.722;2022-11-18T02:50:54;5.90;76.60
14252;DHT22;7210;51.502;10.722;2022-11-18T02:53:24;5.90;75.30
14252;DHT22;7210;51.502;10.722;2022-11-18T02:55:55;5.90;77.90
14252;DHT22;7210;51.502;10.722;2022-11-18T02:58:24;5.80;78.80
14252;DHT22;7210;51.502;10.722;2022-11-18T03:00:54;5.80;73.00
14252;DHT22;7210;51.502;10.722;2022-11-18T03:03:25;5.80;73.80
14252;DHT22;7210;51.502;10.722;2022-11-18T03:06:03;5.80;70.90
14252;DHT22;7210;51.502;10.722;2022-11-18T03:08:41;5.90;71.40
14252;DHT22;7210;51.502;10.722;2022-11-18T03:14:09;5.90;76.00
14252;DHT22;7210;51.502;10.722;2022-11-18T03:16:54;5.90;74.00
14252;DHT22;7210;51.502;10.722;2022-11-18T03:19:34;5.80;79.60
14252;DHT22;7210;51.502;10.722;2022-11-18T03:22:16;5.80;76.50
14252;DHT22;7210;51.502;10.722;2022-11-18T03:24:54;5.80;74.90
14252;DHT22;7210;51.502;10.722;2022-11-18T03:27:29;5.80;73.90
14252;DHT22;7210;51.502;10.722;2022-11-18T03:30:05;5.80;75.80
14252;DHT22;7210;51.502;10.722;2022-11-18T03:32:40;5.80;76.30
14252;DHT22;7210;51.502;10.722;2022-11-18T03:35:16;5.90;80.30
14252;DHT22;7210;51.502;10.722;2022-11-18T03:37:48;5.80;85.40
14252;DHT22;7210;51.502;10.722;2022-11-18T03:40:25;5.80;83.50
14252;DHT22;7210;51.502;10.722;2022-11-18T03:42:59;5.80;88.20
14252;DHT22;7210;51.502;10.722;2022-11-18T03:45:35;5.80;88.70
14252;DHT22;7210;51.502;10.722;2022-11-18T03:48:11;5.80;90.10
14252;DHT22;7210;51.502;10.722;2022-11-18T03:50:44;5.70;95.10
14252;DHT22;7210;51.502;10.722;2022-11-18T03:53:17;5.70;95.60
14252;DHT22;7210;51.502;10.722;2022-11-18T03:55:55;5.70;92.60
14252;DHT22;7210;51.502;10.722;2022-11-18T03:58:30;5.70;89.70
14252;DHT22;7210;51.502;10.722;2022-11-18T04:01:08;5.70;92.00
14252;DHT22;7210;51.502;10.722;2022-11-18T04:03:41;5.70;89.60
14252;DHT22;7210;51.502;10.722;2022-11-18T04:06:17;5.70;88.90
14252;DHT22;7210;51.502;10.722;2022-11-18T04:08:54;5.70;87.70
14252;DHT22;7210;51.502;10.722;2022-11-18T04:11:32;5.70;89.10
14252;DHT22;7210;51.502;10.722;2022-11-18T04:14:20;5.70;90.30
14252;DHT22;7210;51.502;10.722;2022-11-18T04:16:50;5.70;91.10
14252;DHT22;7210;51.502;10.722;2022-11-18T04:19:20;5.70;94.90
14252;DHT22;7210;51.502;10.722;2022-11-18T04:21:47;5.70;99.90
14252;DHT22;7210;51.502;10.722;2022-11-18T04:24:15;5.70;99.90
14252;DHT22;7210;51.502;10.722;2022-11-18T04:26:43;5.60;99.90
14252;DHT22;7210;51.502;10.722;2022-11-18T04:29:10;5.60;99.20
14252;DHT22;7210;51.502;10.722;2022-11-18T04:31:40;5.60;99.90
14252;DHT22;7210;51.502;10.722;2022-11-18T04:34:07;5.60;98.30
14252;DHT22;7210;51.502;10.722;2022-11-18T04:36:36;5.60;99.50
14252;DHT22;7210;51.502;10.722;2022-11-18T04:39:04;5.70;92.10
14252;DHT22;7210;51.502;10.722;2022-11-18T04:41:31;5.70;89.50
14252;DHT22;7210;51.502;10.722;2022-11-18T04:44:15;5.70;91.20
14252;DHT22;7210;51.502;10.722;2022-11-18T04:46:43;5.70;87.80
14252;DHT22;7210;51.502;10.722;2022-11-18T04:49:13;5.70;85.70
14252;DHT22;7210;51.502;10.722;2022-11-18T04:51:45;5.70;88.70
14252;DHT22;7210;51.502;10.722;2022-11-18T04:54:13;5.70;86.40
14252;DHT22;7210;51.502;10.722;2022-11-18T04:56:42;5.70;91.60
14252;DHT22;7210;51.502;10.722;2022-11-18T04:59:17;5.70;89.80
14252;DHT22;7210;51.502;10.722;2022-11-18T05:01:46;5.70;90.00
14252;DHT22;7210;51.502;10.722;2022-11-18T05:04:15;5.70;96.40
14252;DHT22;7210;51.502;10.722;2022-11-18T05:06:47;5.70;95.30
14252;DHT22;7210;51.502;10.722;2022-11-18T05:09:15;5.60;96.10
14252;DHT22;7210;51.502;10.722;2022-11-18T05:11:43;5.60;99.10
14252;DHT22;7210;51.502;10.722;2022-11-18T05:14:40;5.60;99.90
14252;DHT22;7210;51.502;10.722;2022-11-18T05:17:10;5.60;99.40
14252;DHT22;7210;51.502;10.722;2022-11-18T05:19:37;5.60;99.90
14252;DHT22;7210;51.502;10.722;2022-11-18T05:22:06;5.60;99.90
14252;DHT22;7210;51.502;10.722;2022-11-18T05:24:34;5.60;99.90
14252;DHT22;7210;51.502;10.722;2022-11-18T05:27:01;5.60;99.90
14252;DHT22;7210;51.502;10.722;2022-11-18T05:29:34;5.50;99.90
14252;DHT22;7210;51.502;10.722;2022-11-18T05:32:01;5.50;99.90
14252;DHT22;7210;51.502;10.722;2022-11-18T05:34:28;5.60;99.90
14252;DHT22;7210;51.502;10.722;2022-11-18T05:36:56;5.60;99.90
14252;DHT22;7210;51.502;10.722;2022-11-18T05:39:24;5.60;99.90
14252;DHT22;7210;51.502;10.722;2022-11-18T05:41:52;5.60;99.90
14252;DHT22;7210;51.502;10.722;2022-11-18T05:44:36;5.60;99.90
14252;DHT22;7210;51.502;10.722;2022-11-18T05:47:04;5.60;99.90
14252;DHT22;7210;51.502;10.722;2022-11-18T05:49:34;5.50;99.90
14252;DHT22;7210;51.502;10.722;2022-11-18T05:52:01;5.50;99.90
14252;DHT22;7210;51.502;10.722;2022-11-18T05:54:31;5.50;99.90
14252;DHT22;7210;51.502;10.722;2022-11-18T05:57:04;5.50;99.90
14252;DHT22;7210;51.502;10.722;2022-11-18T05:59:31;5.50;99.90
14252;DHT22;7210;51.502;10.722;2022-11-18T06:02:01;5.40;99.90
14252;DHT22;7210;51.502;10.722;2022-11-18T06:04:36;5.40;99.90
14252;DHT22;7210;51.502;10.722;2022-11-18T06:07:09;5.30;99.90
14252;DHT22;7210;51.502;10.722;2022-11-18T06:09:44;5.30;99.90
14252;DHT22;7210;51.502;10.722;2022-11-18T06:12:16;5.30;99.90
14252;DHT22;7210;51.502;10.722;2022-11-18T06:14:48;5.30;99.90
14252;DHT22;7210;51.502;10.722;2022-11-18T06:17:21;5.30;99.90
14252;DHT22;7210;51.502;10.722;2022-11-18T06:19:52;5.30;99.90
14252;DHT22;7210;51.502;10.722;2022-11-18T06:22:20;5.30;99.90
14252;DHT22;7210;51.502;10.722;2022-11-18T06:24:49;5.30;99.90
14252;DHT22;7210;51.502;10.722;2022-11-18T06:27:17;5.20;99.90
14252;DHT22;7210;51.502;10.722;2022-11-18T06:29:45;5.20;99.90
14252;DHT22;7210;51.502;10.722;2022-11-18T06:32:12;5.10;99.90
14252;DHT22;7210;51.502;10.722;2022-11-18T06:34:39;5.10;99.90
14252;DHT22;7210;51.502;10.722;2022-11-18T06:37:14;5.10;99.90
14252;DHT22;7210;51.502;10.722;2022-11-18T06:39:42;5.10;99.90
14252;DHT22;7210;51.502;10.722;2022-11-18T06:42:11;5.10;99.90
14252;DHT22;7210;51.502;10.722;2022-11-18T06:44:59;5.00;99.90
14252;DHT22;7210;51.502;10.722;2022-11-18T06:47:26;5.00;99.90
14252;DHT22;7210;51.502;10.722;2022-11-18T06:49:58;5.00;99.90
14252;DHT22;7210;51.502;10.722;2022-11-18T06:52:26;4.90;99.90
14252;DHT22;7210;51.502;10.722;2022-11-18T06:54:54;4.90;99.90
14252;DHT22;7210;51.502;10.722;2022-11-18T06:57:23;4.90;99.90
14252;DHT22;7210;51.502;10.722;2022-11-18T06:59:51;4.90;99.90
14252;DHT22;7210;51.502;10.722;2022-11-18T07:02:18;4.90;99.90
14252;DHT22;7210;51.502;10.722;2022-11-18T07:04:45;4.90;99.90
14252;DHT22;7210;51.502;10.722;2022-11-18T07:07:12;4.90;99.90
14252;DHT22;7210;51.502;10.722;2022-11-18T07:09:40;4.90;99.90
14252;DHT22;7210;51.502;10.722;2022-11-18T07:12:07;4.90;99.90
14252;DHT22;7210;51.502;10.722;2022-11-18T07:14:36;4.90;99.90
14252;DHT22;7210;51.502;10.722;2022-11-18T07:17:03;5.00;99.90
14252;DHT22;7210;51.502;10.722;2022-11-18T07:19:34;4.90;99.90
14252;DHT22;7210;51.502;10.722;2022-11-18T07:22:01;4.90;99.90
14252;DHT22;7210;51.502;10.722;2022-11-18T07:24:28;5.00;99.90
14252;DHT22;7210;51.502;10.722;2022-11-18T07:26:56;5.00;99.90
14252;DHT22;7210;51.502;10.722;2022-11-18T07:29:23;5.00;99.90
14252;DHT22;7210;51.502;10.722;2022-11-18T07:31:53;5.00;99.90
14252;DHT22;7210;51.502;10.722;2022-11-18T07:34:20;5.00;99.90
14252;DHT22;7210;51.502;10.722;2022-11-18T07:36:48;4.90;99.90
14252;DHT22;7210;51.502;10.722;2022-11-18T07:39:15;4.90;99.90
14252;DHT22;7210;51.502;10.722;2022-11-18T07:41:42;4.90;99.90
14252;DHT22;7210;51.502;10.722;2022-11-18T07:44:12;5.00;99.90
14252;DHT22;7210;51.502;10.722;2022-11-18T07:46:43;5.00;99.90
14252;DHT22;7210;51.502;10.722;2022-11-18T07:49:13;5.10;99.90
14252;DHT22;7210;51.502;10.722;2022-11-18T07:51:42;5.00;99.90
14252;DHT22;7210;51.502;10.722;2022-11-18T07:54:14;5.10;99.90
14252;DHT22;7210;51.502;10.722;2022-11-18T07:56:43;5.10;99.90
14252;DHT22;7210;51.502;10.722;2022-11-18T07:59:12;5.10;99.90
14252;DHT22;7210;51.502;10.722;2022-11-18T08:01:40;5.10;99.90
14252;DHT22;7210;51.502;10.722;2022-11-18T08:04:10;5.10;99.90
14252;DHT22;7210;51.502;10.722;2022-11-18T08:06:40;5.10;99.90
14252;DHT22;7210;51.502;10.722;2022-11-18T08:09:10;5.60;99.90
14252;DHT22;7210;51.502;10.722;2022-11-18T08:11:37;5.80;99.90
14252;DHT22;7210;51.502;10.722;2022-11-18T08:14:05;5.90;99.90
14252;DHT22;7210;51.502;10.722;2022-11-18T08:16:33;6.10;99.90
14252;DHT22;7210;51.502;10.722;2022-11-18T08:19:00;6.20;99.90
14252;DHT22;7210;51.502;10.722;2022-11-18T08:21:28;6.30;99.90
14252;DHT22;7210;51.502;10.722;2022-11-18T08:23:56;6.50;99.90
14252;DHT22;7210;51.502;10.722;2022-11-18T08:26:25;6.50;99.90
14252;DHT22;7210;51.502;10.722;2022-11-18T08:28:53;6.50;99.90
14252;DHT22;7210;51.502;10.722;2022-11-18T08:31:22;6.30;99.90
14252;DHT22;7210;51.502;10.722;2022-11-18T08:33:53;6.30;99.90
14252;DHT22;7210;51.502;10.722;2022-11-18T08:36:25;6.20;99.90
14252;DHT22;7210;51.502;10.722;2022-11-18T08:38:55;6.10;99.90
14252;DHT22;7210;51.502;10.722;2022-11-18T08:41:30;6.10;99.90
14252;DHT22;7210;51.502;10.722;2022-11-18T08:43:59;6.10;99.90
14252;DHT22;7210;51.502;10.722;2022-11-18T08:46:27;5.90;99.90
14252;DHT22;7210;51.502;10.722;2022-11-18T08:48:55;5.90;99.90
14252;DHT22;7210;51.502;10.722;2022-11-18T08:51:22;5.90;99.90
14252;DHT22;7210;51.502;10.722;2022-11-18T08:54:00;5.80;99.90
14252;DHT22;7210;51.502;10.722;2022-11-18T08:56:28;5.70;99.90
14252;DHT22;7210;51.502;10.722;2022-11-18T08:58:56;5.60;99.90
14252;DHT22;7210;51.502;10.722;2022-11-18T09:01:23;5.70;99.90
14252;DHT22;7210;51.502;10.722;2022-11-18T09:03:51;5.80;99.90
14252;DHT22;7210;51.502;10.722;2022-11-18T09:06:20;5.90;99.90
14252;DHT22;7210;51.502;10.722;2022-11-18T09:08:49;5.80;99.90
14252;DHT22;7210;51.502;10.722;2022-11-18T09:11:20;5.60;99.90
14252;DHT22;7210;51.502;10.722;2022-11-18T09:13:51;5.70;99.90
14252;DHT22;7210;51.502;10.722;2022-11-18T09:16:20;5.60;99.90
14252;DHT22;7210;51.502;10.722;2022-11-18T09:18:48;5.80;99.90
14252;DHT22;7210;51.502;10.722;2022-11-18T09:21:16;5.70;99.90
14252;DHT22;7210;51.502;10.722;2022-11-18T09:23:52;5.80;99.90
14252;DHT22;7210;51.502;10.722;2022-11-18T09:26:22;5.50;99.90
14252;DHT22;7210;51.502;10.722;2022-11-18T09:28:52;5.40;99.90
14252;DHT22;7210;51.502;10.722;2022-11-18T09:31:20;5.30;99.90
14252;DHT22;7210;51.502;10.722;2022-11-18T09:33:52;5.10;99.90
14252;DHT22;7210;51.502;10.722;2022-11-18T09:36:22;5.00;99.90
14252;DHT22;7210;51.502;10.722;2022-11-18T09:38:51;5.00;99.90
14252;DHT22;7210;51.502;10.722;2022-11-18T09:41:43;5.10;99.90
14252;DHT22;7210;51.502;10.722;2022-11-18T09:44:20;5.20;99.90
14252;DHT22;7210;51.502;10.722;2022-11-18T09:47:09;5.20;99.90
14252;DHT22;7210;51.502;10.722;2022-11-18T09:49:45;5.20;99.90
14252;DHT22;7210;51.502;10.722;2022-11-18T09:52:17;5.10;99.90
14252;DHT22;7210;51.502;10.722;2022-11-18T09:54:46;5.10;99.90
14252;DHT22;7210;51.502;10.722;2022-11-18T09:57:18;5.00;99.90
14252;DHT22;7210;51.502;10.722;2022-11-18T09:59:47;5.10;99.90
14252;DHT22;7210;51.502;10.722;2022-11-18T10:02:27;5.20;99.90
14252;DHT22;7210;51.502;10.722;2022-11-18T10:05:15;5.10;99.90
14252;DHT22;7210;51.502;10.722;2022-11-18T10:07:51;5.00;99.90
14252;DHT22;7210;51.502;10.722;2022-11-18T10:10:33;4.80;99.90
14252;DHT22;7210;51.502;10.722;2022-11-18T10:13:16;4.80;99.90
14252;DHT22;7210;51.502;10.722;2022-11-18T10:15:57;4.70;99.90
14252;DHT22;7210;51.502;10.722;2022-11-18T10:18:38;4.70;99.90
14252;DHT22;7210;51.502;10.722;2022-11-18T10:21:19;4.70;99.90
14252;DHT22;7210;51.502;10.722;2022-11-18T10:23:59;4.60;99.90
14252;DHT22;7210;51.502;10.722;2022-11-18T10:26:32;4.60;99.90
14252;DHT22;7210;51.502;10.722;2022-11-18T10:29:02;4.50;99.90
14252;DHT22;7210;51.502;10.722;2022-11-18T10:31:35;4.50;99.90
14252;DHT22;7210;51.502;10.722;2022-11-18T10:34:04;4.50;99.90
14252;DHT22;7210;51.502;10.722;2022-11-18T10:36:32;4.50;99.90
14252;DHT22;7210;51.502;10.722;2022-11-18T10:39:10;4.60;99.90
14252;DHT22;7210;51.502;10.722;2022-11-18T10:41:51;4.50;99.90
14252;DHT22;7210;51.502;10.722;2022-11-18T10:44:29;4.50;99.90
14252;DHT22;7210;51.502;10.722;2022-11-18T10:47:26;4.40;99.90
14252;DHT22;7210;51.502;10.722;2022-11-18T10:49:57;4.30;99.90
14252;DHT22;7210;51.502;10.722;2022-11-18T10:52:27;4.20;99.90
14252;DHT22;7210;51.502;10.722;2022-11-18T10:55:15;4.30;99.90
14252;DHT22;7210;51.502;10.722;2022-11-18T10:57:47;4.30;99.90
14252;DHT22;7210;51.502;10.722;2022-11-18T11:00:44;4.20;99.90
14252;DHT22;7210;51.502;10.722;2022-11-18T11:03:32;4.30;99.90
14252;DHT22;7210;51.502;10.722;2022-11-18T11:06:34;4.20;99.90
14252;DHT22;7210;51.502;10.722;2022-11-18T11:09:06;4.30;99.90
14252;DHT22;7210;51.502;10.722;2022-11-18T11:11:37;4.30;99.90
14252;DHT22;7210;51.502;10.722;2022-11-18T11:14:16;4.30;99.90
14252;DHT22;7210;51.502;10.722;2022-11-18T11:16:54;4.30;99.90
14252;DHT22;7210;51.502;10.722;2022-11-18T11:22:17;4.20;99.90
14252;DHT22;7210;51.502;10.722;2022-11-18T11:24:45;4.20;99.90
14252;DHT22;7210;51.502;10.722;2022-11-18T11:27:48;4.20;99.90
14252;DHT22;7210;51.502;10.722;2022-11-18T11:30:29;4.20;99.90
14252;DHT22;7210;51.502;10.722;2022-11-18T11:33:27;4.20;99.90
14252;DHT22;7210;51.502;10.722;2022-11-18T11:36:08;4.30;99.90
14252;DHT22;7210;51.502;10.722;2022-11-18T11:38:53;4.20;99.90
14252;DHT22;7210;51.502;10.722;2022-11-18T11:41:29;4.20;99.90
14252;DHT22;7210;51.502;10.722;2022-11-18T11:44:20;4.20;99.90
14252;DHT22;7210;51.502;10.722;2022-11-18T11:47:03;4.20;99.90
14252;DHT22;7210;51.502;10.722;2022-11-18T11:50:01;4.20;99.90
14252;DHT22;7210;51.502;10.722;2022-11-18T11:52:43;4.20;99.90
14252;DHT22;7210;51.502;10.722;2022-11-18T11:55:24;4.10;99.90
14252;DHT22;7210;51.502;10.722;2022-11-18T11:58:20;4.20;99.90
14252;DHT22;7210;51.502;10.722;2022-11-18T12:01:02;4.10;99.90
14252;DHT22;7210;51.502;10.722;2022-11-18T12:03:43;4.10;99.90
14252;DHT22;7210;51.502;10.722;2022-11-18T12:06:13;4.10;99.90
14252;DHT22;7210;51.502;10.722;2022-11-18T12:08:49;4.00;99.90
14252;DHT22;7210;51.502;10.722;2022-11-18T12:11:32;3.90;99.90
14252;DHT22;7210;51.502;10.722;2022-11-18T12:14:15;3.90;99.90
14252;DHT22;7210;51.502;10.722;2022-11-18T12:16:57;3.70;99.90
14252;DHT22;7210;51.502;10.722;2022-11-18T12:19:37;3.60;99.90
14252;DHT22;7210;51.502;10.722;2022-11-18T12:22:06;3.60;99.90
14252;DHT22;7210;51.502;10.722;2022-11-18T12:24:35;3.50;99.90
14252;DHT22;7210;51.502;10.722;2022-11-18T12:27:09;3.50;99.90
14252;DHT22;7210;51.502;10.722;2022-11-18T12:29:53;3.50;99.90
14252;DHT22;7210;51.502;10.722;2022-11-18T12:32:30;3.50;99.90
14252;DHT22;7210;51.502;10.722;2022-11-18T12:35:03;3.50;99.90
14252;DHT22;7210;51.502;10.722;2022-11-18T12:37:59;3.40;99.90
14252;DHT22;7210;51.502;10.722;2022-11-18T12:40:40;3.40;99.90
14252;DHT22;7210;51.502;10.722;2022-11-18T12:46:51;3.30;99.90
14252;DHT22;7210;51.502;10.722;2022-11-18T12:52:53;3.70;99.90
14252;DHT22;7210;51.502;10.722;2022-11-18T12:55:47;3.80;99.90
14252;DHT22;7210;51.502;10.722;2022-11-18T12:58:28;4.20;99.90
14252;DHT22;7210;51.502;10.722;2022-11-18T13:01:06;4.10;99.90
14252;DHT22;7210;51.502;10.722;2022-11-18T13:03:40;3.90;99.90
14252;DHT22;7210;51.502;10.722;2022-11-18T13:06:17;3.70;99.90
14252;DHT22;7210;51.502;10.722;2022-11-18T13:08:52;3.50;99.90
14252;DHT22;7210;51.502;10.722;2022-11-18T13:11:27;3.30;99.90
14252;DHT22;7210;51.502;10.722;2022-11-18T13:14:15;3.30;99.90
14252;DHT22;7210;51.502;10.722;2022-11-18T13:17:02;3.20;99.90
14252;DHT22;7210;51.502;10.722;2022-11-18T13:20:18;3.20;99.90
14252;DHT22;7210;51.502;10.722;2022-11-18T13:22:50;3.10;99.90
14252;DHT22;7210;51.502;10.722;2022-11-18T13:25:35;3.10;99.90
14252;DHT22;7210;51.502;10.722;2022-11-18T13:28:11;3.20;99.90
14252;DHT22;7210;51.502;10.722;2022-11-18T13:30:50;3.20;99.90
14252;DHT22;7210;51.502;10.722;2022-11-18T13:33:22;3.20;99.90
14252;DHT22;7210;51.502;10.722;2022-11-18T13:35:49;3.10;99.90
14252;DHT22;7210;51.502;10.722;2022-11-18T13:38:23;3.00;99.90
14252;DHT22;7210;51.502;10.722;2022-11-18T13:40:51;2.90;99.90
14252;DHT22;7210;51.502;10.722;2022-11-18T13:43:34;2.80;99.90
14252;DHT22;7210;51.502;10.722;2022-11-18T13:46:04;2.80;99.90
14252;DHT22;7210;51.502;10.722;2022-11-18T13:48:45;2.60;99.90
14252;DHT22;7210;51.502;10.722;2022-11-18T13:51:17;2.50;99.90
14252;DHT22;7210;51.502;10.722;2022-11-18T13:53:46;2.40;99.90
14252;DHT22;7210;51.502;10.722;2022-11-18T13:56:17;2.40;99.90
14252;DHT22;7210;51.502;10.722;2022-11-18T13:58:53;2.40;99.90
14252;DHT22;7210;51.502;10.722;2022-11-18T14:01:30;2.30;99.90
14252;DHT22;7210;51.502;10.722;2022-11-18T14:04:00;2.30;99.90
14252;DHT22;7210;51.502;10.722;2022-11-18T14:06:30;2.30;99.90
14252;DHT22;7210;51.502;10.722;2022-11-18T14:09:14;2.30;99.90
14252;DHT22;7210;51.502;10.722;2022-11-18T14:11:58;2.30;99.90
14252;DHT22;7210;51.502;10.722;2022-11-18T14:14:37;2.50;99.90
14252;DHT22;7210;51.502;10.722;2022-11-18T14:17:15;3.00;99.90
14252;DHT22;7210;51.502;10.722;2022-11-18T14:19:45;2.90;99.90
14252;DHT22;7210;51.502;10.722;2022-11-18T14:22:15;2.70;99.90
14252;DHT22;7210;51.502;10.722;2022-11-18T14:24:53;2.50;99.90
14252;DHT22;7210;51.502;10.722;2022-11-18T14:27:35;2.50;99.90
14252;DHT22;7210;51.502;10.722;2022-11-18T14:30:25;2.40;99.90
14252;DHT22;7210;51.502;10.722;2022-11-18T14:33:11;2.40;99.90
14252;DHT22;7210;51.502;10.722;2022-11-18T14:35:42;2.30;99.90
14252;DHT22;7210;51.502;10.722;2022-11-18T14:38:12;2.30;99.90
14252;DHT22;7210;51.502;10.722;2022-11-18T14:40:42;2.20;99.90
14252;DHT22;7210;51.502;10.722;2022-11-18T14:43:11;2.10;99.90
14252;DHT22;7210;51.502;10.722;2022-11-18T14:45:41;2.10;99.90
14252;DHT22;7210;51.502;10.722;2022-11-18T14:48:11;2.10;99.90
14252;DHT22;7210;51.502;10.722;2022-11-18T14:50:40;2.00;99.90
14252;DHT22;7210;51.502;10.722;2022-11-18T14:53:08;2.00;99.90
14252;DHT22;7210;51.502;10.722;2022-11-18T14:55:37;2.00;99.90
14252;DHT22;7210;51.502;10.722;2022-11-18T14:58:07;1.90;99.90
14252;DHT22;7210;51.502;10.722;2022-11-18T15:00:38;1.80;99.90
14252;DHT22;7210;51.502;10.722;2022-11-18T15:03:06;1.80;99.90
14252;DHT22;7210;51.502;10.722;2022-11-18T15:05:34;1.80;99.90
14252;DHT22;7210;51.502;10.722;2022-11-18T15:08:01;2.00;99.90
14252;DHT22;7210;51.502;10.722;2022-11-18T15:10:40;2.00;99.90
14252;DHT22;7210;51.502;10.722;2022-11-18T15:13:07;1.80;99.90
14252;DHT22;7210;51.502;10.722;2022-11-18T15:15:34;1.80;99.90
14252;DHT22;7210;51.502;10.722;2022-11-18T15:18:05;1.70;99.90
14252;DHT22;7210;51.502;10.722;2022-11-18T15:20:34;1.70;99.90
14252;DHT22;7210;51.502;10.722;2022-11-18T15:23:01;1.70;99.90
14252;DHT22;7210;51.502;10.722;2022-11-18T15:25:46;1.70;99.90
14252;DHT22;7210;51.502;10.722;2022-11-18T15:28:14;1.70;99.90
14252;DHT22;7210;51.502;10.722;2022-11-18T15:30:41;1.70;99.90
14252;DHT22;7210;51.502;10.722;2022-11-18T15:33:10;1.70;99.90
14252;DHT22;7210;51.502;10.722;2022-11-18T15:35:37;1.70;99.90
14252;DHT22;7210;51.502;10.722;2022-11-18T15:38:04;1.70;99.90
14252;DHT22;7210;51.502;10.722;2022-11-18T15:40:32;1.60;99.90
14252;DHT22;7210;51.502;10.722;2022-11-18T15:43:04;1.70;99.90
14252;DHT22;7210;51.502;10.722;2022-11-18T15:45:34;1.50;99.90
14252;DHT22;7210;51.502;10.722;2022-11-18T15:48:04;1.40;99.90
14252;DHT22;7210;51.502;10.722;2022-11-18T15:50:33;1.30;99.90
14252;DHT22;7210;51.502;10.722;2022-11-18T15:53:10;1.30;99.90
14252;DHT22;7210;51.502;10.722;2022-11-18T15:55:40;1.40;99.90
14252;DHT22;7210;51.502;10.722;2022-11-18T15:58:10;1.40;99.90
14252;DHT22;7210;51.502;10.722;2022-11-18T16:00:37;1.40;99.90
14252;DHT22;7210;51.502;10.722;2022-11-18T16:03:10;1.40;99.90
14252;DHT22;7210;51.502;10.722;2022-11-18T16:05:59;1.40;99.90
14252;DHT22;7210;51.502;10.722;2022-11-18T16:08:27;1.40;99.90
14252;DHT22;7210;51.502;10.722;2022-11-18T16:10:55;1.40;99.90
14252;DHT22;7210;51.502;10.722;2022-11-18T16:13:46;1.40;99.90
14252;DHT22;7210;51.502;10.722;2022-11-18T16:16:23;1.40;99.90
14252;DHT22;7210;51.502;10.722;2022-11-18T16:18:59;1.30;99.90
14252;DHT22;7210;51.502;10.722;2022-11-18T16:21:31;1.40;99.90
14252;DHT22;7210;51.502;10.722;2022-11-18T16:24:03;1.30;99.90
14252;DHT22;7210;51.502;10.722;2022-11-18T16:26:34;1.30;99.90
14252;DHT22;7210;51.502;10.722;2022-11-18T16:29:03;1.30;99.90
14252;DHT22;7210;51.502;10.722;2022-11-18T16:31:30;1.30;99.90
14252;DHT22;7210;51.502;10.722;2022-11-18T16:34:09;1.30;99.90
14252;DHT22;7210;51.502;10.722;2022-11-18T16:36:40;1.30;99.90
14252;DHT22;7210;51.502;10.722;2022-11-18T16:39:10;1.30;99.90
14252;DHT22;7210;51.502;10.722;2022-11-18T16:41:53;1.30;99.90